Time;durP1;ratioP1;P1;durP2;ratioP2;P2;SDS_P1;SDS_P2;PMS_P1;PMS_P2;Temp;Humidity;BMP_temperature;BMP_pressure;BME280_temperature;BME280_humidity;BME280_pressure;Samples;Min_cycle;Max_cycle;Signal;HPM_P1;HPM_P2
2023/06/23 00:01:51;;;;;;;;;;;25.80;91.30;;;;;;5094613;28;20301;-40
2023/06/23 00:04:17;;;;;;;;;;;25.80;91.20;;;;;;5075992;28;19955;-40
2023/06/23 00:06:42;;;;;;;;;;;25.80;91.40;;;;;;5093990;28;19912;-40
2023/06/23 00:09:13;;;;;;;;;;;25.80;91.30;;;;;;5094620;28;20316;-40
2023/06/23 00:11:42;;;;;;;;;;;25.80;91.40;;;;;;5094344;28;19958;-41
2023/06/23 00:14:07;;;;;;;;;;;25.80;91.40;;;;;;5094152;28;19912;-40
2023/06/23 00:16:33;;;;;;;;;;;25.80;91.40;;;;;;5093193;28;19908;-39
2023/06/23 00:18:58;;;;;;;;;;;25.80;91.40;;;;;;5094384;28;19908;-40
2023/06/23 00:21:24;;;;;;;;;;;25.80;91.30;;;;;;5094067;28;19912;-40
2023/06/23 00:23:50;;;;;;;;;;;25.80;91.20;;;;;;5093546;28;20369;-39
2023/06/23 00:26:16;;;;;;;;;;;25.80;91.40;;;;;;5093711;28;20282;-39
2023/06/23 00:28:41;;;;;;;;;;;25.80;91.20;;;;;;5093688;28;19908;-40
2023/06/23 00:31:07;;;;;;;;;;;25.70;91.30;;;;;;5093620;28;19908;-39
2023/06/23 00:33:33;;;;;;;;;;;25.80;91.40;;;;;;5093650;28;19908;-39
2023/06/23 00:35:58;;;;;;;;;;;25.70;91.50;;;;;;5093851;28;20262;-39
2023/06/23 00:38:25;;;;;;;;;;;25.70;91.50;;;;;;5093869;28;19919;-40
2023/06/23 00:40:50;;;;;;;;;;;25.80;91.40;;;;;;5093847;28;19908;-40
2023/06/23 00:43:16;;;;;;;;;;;25.70;91.30;;;;;;5093376;28;20440;-39
2023/06/23 00:45:43;;;;;;;;;;;25.70;91.40;;;;;;5093480;28;19951;-39
2023/06/23 00:48:13;;;;;;;;;;;25.70;91.30;;;;;;5093601;28;19924;-39
2023/06/23 00:50:38;;;;;;;;;;;25.70;91.50;;;;;;5093639;28;20347;-39
2023/06/23 00:53:04;;;;;;;;;;;25.70;91.50;;;;;;5093703;28;19957;-40
2023/06/23 00:55:30;;;;;;;;;;;25.70;91.60;;;;;;5093718;28;20281;-39
2023/06/23 00:57:56;;;;;;;;;;;25.70;91.60;;;;;;5093674;28;20314;-40
2023/06/23 01:00:23;;;;;;;;;;;25.70;91.60;;;;;;5094022;28;19908;-40
2023/06/23 01:02:49;;;;;;;;;;;25.70;91.70;;;;;;5093663;28;19908;-39
2023/06/23 01:05:15;;;;;;;;;;;25.70;91.70;;;;;;5093701;28;19920;-39
2023/06/23 01:07:46;;;;;;;;;;;25.70;91.80;;;;;;5093732;28;20410;-40
2023/06/23 01:10:17;;;;;;;;;;;25.70;91.80;;;;;;5093796;28;19954;-40
2023/06/23 01:12:47;;;;;;;;;;;25.70;91.80;;;;;;5093611;28;20275;-39
2023/06/23 01:15:13;;;;;;;;;;;25.70;91.80;;;;;;5093993;28;19954;-40
2023/06/23 01:17:58;;;;;;;;;;;25.70;91.80;;;;;;5093585;28;19912;-40
2023/06/23 01:20:27;;;;;;;;;;;25.70;91.70;;;;;;5078972;28;20318;-39
2023/06/23 01:22:54;;;;;;;;;;;25.70;91.70;;;;;;5093366;28;19916;-39
2023/06/23 01:25:38;;;;;;;;;;;25.70;91.70;;;;;;5093291;28;19912;-39
2023/06/23 01:28:14;;;;;;;;;;;25.70;91.80;;;;;;5094233;28;19908;-39
2023/06/23 01:30:43;;;;;;;;;;;25.70;91.80;;;;;;5097239;28;19951;-40
2023/06/23 01:33:13;;;;;;;;;;;25.70;91.80;;;;;;5097015;28;19956;-40
2023/06/23 01:35:42;;;;;;;;;;;25.70;91.80;;;;;;5096786;28;20317;-40
2023/06/23 01:38:14;;;;;;;;;;;25.70;91.80;;;;;;5097207;28;19909;-40
2023/06/23 01:40:41;;;;;;;;;;;25.70;91.90;;;;;;5097448;28;20034;-40
2023/06/23 01:43:07;;;;;;;;;;;25.70;91.90;;;;;;5096954;28;19955;-40
2023/06/23 01:45:34;;;;;;;;;;;25.70;91.80;;;;;;5096845;28;20015;-39
2023/06/23 01:48:02;;;;;;;;;;;25.70;91.80;;;;;;5096707;28;20364;-40
2023/06/23 01:50:29;;;;;;;;;;;25.70;91.70;;;;;;5097133;28;19916;-40
2023/06/23 01:52:56;;;;;;;;;;;25.70;91.70;;;;;;5097009;28;19920;-40
2023/06/23 01:55:22;;;;;;;;;;;25.60;91.70;;;;;;5096971;28;19912;-39
2023/06/23 01:57:48;;;;;;;;;;;25.70;91.80;;;;;;5096403;28;19915;-40
2023/06/23 02:00:15;;;;;;;;;;;25.70;91.80;;;;;;5096918;28;19939;-40
2023/06/23 02:02:42;;;;;;;;;;;25.60;91.80;;;;;;5096226;28;19931;-40
2023/06/23 02:05:09;;;;;;;;;;;25.60;91.80;;;;;;5096468;28;20006;-40
2023/06/23 02:07:35;;;;;;;;;;;25.60;91.80;;;;;;5096167;28;19957;-40
2023/06/23 02:10:01;;;;;;;;;;;25.60;91.80;;;;;;5096119;28;19908;-39
2023/06/23 02:12:27;;;;;;;;;;;25.70;91.90;;;;;;5096344;28;19977;-40
2023/06/23 02:14:52;;;;;;;;;;;25.60;91.90;;;;;;5096070;28;20350;-39
2023/06/23 02:17:18;;;;;;;;;;;25.60;91.90;;;;;;5096373;28;19908;-39
2023/06/23 02:19:45;;;;;;;;;;;25.60;91.90;;;;;;5096256;28;19937;-40
2023/06/23 02:22:11;;;;;;;;;;;25.60;91.90;;;;;;5095924;28;20003;-40
2023/06/23 02:24:38;;;;;;;;;;;25.60;92.00;;;;;;5096145;28;20453;-40
2023/06/23 02:27:04;;;;;;;;;;;25.70;92.00;;;;;;5096142;28;19912;-39
2023/06/23 02:29:30;;;;;;;;;;;25.70;92.00;;;;;;5096006;28;20355;-40
2023/06/23 02:31:55;;;;;;;;;;;25.60;92.00;;;;;;5095769;28;19908;-39
2023/06/23 02:34:21;;;;;;;;;;;25.60;92.00;;;;;;5096030;28;19908;-39
2023/06/23 02:36:49;;;;;;;;;;;25.60;92.10;;;;;;5095991;28;19908;-40
2023/06/23 02:39:18;;;;;;;;;;;25.60;92.10;;;;;;5095119;28;20464;-40
2023/06/23 02:41:46;;;;;;;;;;;25.60;92.10;;;;;;5095541;28;20274;-40
2023/06/23 02:44:12;;;;;;;;;;;25.60;92.10;;;;;;5095834;28;19922;-39
2023/06/23 02:46:39;;;;;;;;;;;25.60;92.10;;;;;;5095580;28;19965;-39
2023/06/23 02:49:21;;;;;;;;;;;25.60;92.10;;;;;;5095657;28;19912;-40
2023/06/23 02:51:48;;;;;;;;;;;25.60;92.10;;;;;;5095745;28;19911;-40
2023/06/23 02:54:17;;;;;;;;;;;25.70;92.10;;;;;;5095353;28;19908;-40
2023/06/23 02:56:43;;;;;;;;;;;25.60;92.10;;;;;;5095279;28;20303;-40
2023/06/23 02:59:11;;;;;;;;;;;25.60;92.10;;;;;;5095271;28;19908;-40
2023/06/23 03:01:39;;;;;;;;;;;25.60;92.10;;;;;;5095240;28;20385;-40
2023/06/23 03:04:04;;;;;;;;;;;25.60;92.10;;;;;;5094997;28;20382;-40
2023/06/23 03:06:32;;;;;;;;;;;25.60;92.10;;;;;;5095388;28;19939;-40
2023/06/23 03:08:58;;;;;;;;;;;25.60;92.10;;;;;;5095318;28;19908;-40
2023/06/23 03:11:23;;;;;;;;;;;25.60;92.10;;;;;;5095555;28;19909;-40
2023/06/23 03:13:49;;;;;;;;;;;25.60;92.10;;;;;;5095268;28;20011;-40
2023/06/23 03:16:19;;;;;;;;;;;25.60;92.10;;;;;;5094910;28;20290;-40
2023/06/23 03:18:52;;;;;;;;;;;25.60;92.10;;;;;;5095185;28;20287;-40
2023/06/23 03:21:18;;;;;;;;;;;25.60;92.10;;;;;;5095409;28;20002;-40
2023/06/23 03:23:49;;;;;;;;;;;25.60;92.10;;;;;;5094735;28;20342;-40
2023/06/23 03:26:15;;;;;;;;;;;25.60;92.10;;;;;;5094959;28;20247;-40
2023/06/23 03:28:41;;;;;;;;;;;25.60;92.10;;;;;;5095271;28;19915;-40
2023/06/23 03:31:08;;;;;;;;;;;25.60;92.20;;;;;;5094879;28;19908;-40
2023/06/23 03:33:35;;;;;;;;;;;25.60;92.20;;;;;;5094544;28;19912;-40
2023/06/23 03:36:15;;;;;;;;;;;25.60;92.20;;;;;;5094683;28;19934;-40
2023/06/23 03:38:58;;;;;;;;;;;25.60;92.20;;;;;;5095080;28;19908;-40
2023/06/23 03:41:26;;;;;;;;;;;25.60;92.20;;;;;;5094596;28;20378;-40
2023/06/23 03:43:54;;;;;;;;;;;25.60;92.20;;;;;;5094346;28;19916;-40
2023/06/23 03:46:35;;;;;;;;;;;25.60;92.20;;;;;;5094696;28;20398;-40
2023/06/23 03:49:01;;;;;;;;;;;25.60;92.20;;;;;;5094631;28;20306;-40
2023/06/23 03:51:28;;;;;;;;;;;25.60;92.40;;;;;;5094382;28;19909;-40
2023/06/23 03:53:54;;;;;;;;;;;25.60;92.20;;;;;;5094195;28;19999;-40
2023/06/23 03:56:20;;;;;;;;;;;25.60;92.20;;;;;;5093974;28;19915;-40
2023/06/23 03:58:48;;;;;;;;;;;25.60;92.20;;;;;;5094199;28;19908;-40
2023/06/23 04:01:14;;;;;;;;;;;25.60;92.20;;;;;;5094180;28;19908;-41
2023/06/23 04:03:40;;;;;;;;;;;25.60;92.10;;;;;;5094213;28;19934;-40
2023/06/23 04:06:07;;;;;;;;;;;25.60;92.10;;;;;;5094468;28;19912;-40
2023/06/23 04:08:34;;;;;;;;;;;25.60;92.10;;;;;;5093950;28;19915;-40
2023/06/23 04:11:00;;;;;;;;;;;25.60;92.20;;;;;;5094252;28;19912;-40
2023/06/23 04:13:26;;;;;;;;;;;25.60;92.20;;;;;;5094125;28;19912;-40
2023/06/23 04:15:52;;;;;;;;;;;25.60;92.10;;;;;;5094251;28;19951;-40
2023/06/23 04:18:18;;;;;;;;;;;25.60;92.10;;;;;;5093862;28;19915;-40
2023/06/23 04:20:44;;;;;;;;;;;25.60;92.10;;;;;;5094034;28;20020;-41
2023/06/23 04:23:10;;;;;;;;;;;25.60;92.20;;;;;;5094079;28;19912;-40
2023/06/23 04:25:37;;;;;;;;;;;25.60;92.10;;;;;;5093776;28;19912;-40
2023/06/23 04:28:03;;;;;;;;;;;25.70;92.10;;;;;;5093686;28;19908;-40
2023/06/23 04:30:29;;;;;;;;;;;25.60;92.00;;;;;;5094098;28;20359;-40
2023/06/23 04:32:55;;;;;;;;;;;25.60;92.10;;;;;;5093993;28;19912;-40
2023/06/23 04:35:20;;;;;;;;;;;25.60;92.10;;;;;;5093933;28;19909;-40
2023/06/23 04:37:56;;;;;;;;;;;25.60;92.10;;;;;;5094251;28;19908;-40
2023/06/23 04:40:34;;;;;;;;;;;25.60;92.10;;;;;;5094299;28;20386;-40
2023/06/23 04:43:12;;;;;;;;;;;25.60;92.10;;;;;;5092692;28;19988;-40
2023/06/23 04:45:41;;;;;;;;;;;25.60;92.00;;;;;;5091308;28;19966;-40
2023/06/23 04:48:09;;;;;;;;;;;25.60;92.00;;;;;;5093421;28;20057;-40
2023/06/23 04:50:35;;;;;;;;;;;25.60;92.00;;;;;;5094098;28;19919;-41
2023/06/23 04:53:05;;;;;;;;;;;25.60;92.00;;;;;;5091808;28;20006;-39
2023/06/23 04:55:33;;;;;;;;;;;25.60;92.00;;;;;;5108644;28;19912;-40
2023/06/23 04:57:59;;;;;;;;;;;25.70;92.00;;;;;;5114109;28;19907;-40
2023/06/23 05:00:25;;;;;;;;;;;25.60;91.80;;;;;;5111510;28;19995;-40
2023/06/23 05:02:52;;;;;;;;;;;25.60;91.30;;;;;;5091723;28;20324;-40
2023/06/23 05:05:20;;;;;;;;;;;25.60;91.50;;;;;;5106145;28;19969;-39
2023/06/23 05:07:48;;;;;;;;;;;25.60;91.50;;;;;;5099685;28;19908;-40
2023/06/23 05:10:14;;;;;;;;;;;25.60;91.50;;;;;;5097079;28;19912;-39
2023/06/23 05:12:40;;;;;;;;;;;25.60;91.40;;;;;;5097489;28;19942;-39
2023/06/23 05:15:07;;;;;;;;;;;25.60;91.50;;;;;;5097464;28;19915;-39
2023/06/23 05:17:34;;;;;;;;;;;25.60;91.60;;;;;;5097352;28;20351;-39
2023/06/23 05:20:01;;;;;;;;;;;25.60;91.60;;;;;;5097438;28;19962;-39
2023/06/23 05:22:27;;;;;;;;;;;25.60;91.60;;;;;;5096988;28;19998;-39
2023/06/23 05:24:54;;;;;;;;;;;25.60;91.60;;;;;;5096595;28;19912;-39
2023/06/23 05:27:22;;;;;;;;;;;25.60;91.70;;;;;;5078941;28;20384;-40
2023/06/23 05:29:50;;;;;;;;;;;25.60;91.20;;;;;;5097138;28;19969;-39
2023/06/23 05:32:17;;;;;;;;;;;25.60;91.40;;;;;;5097287;28;20313;-41
2023/06/23 05:34:43;;;;;;;;;;;25.60;91.50;;;;;;5110370;28;19911;-40
2023/06/23 05:37:09;;;;;;;;;;;25.60;91.40;;;;;;5097044;28;19908;-40
2023/06/23 05:39:35;;;;;;;;;;;25.60;91.40;;;;;;5097019;28;19965;-39
2023/06/23 05:42:00;;;;;;;;;;;25.60;91.50;;;;;;5096660;28;19961;-40
2023/06/23 05:44:26;;;;;;;;;;;25.60;91.30;;;;;;5096566;28;20290;-39
2023/06/23 05:46:54;;;;;;;;;;;25.60;91.50;;;;;;5096311;28;19912;-39
2023/06/23 05:49:21;;;;;;;;;;;25.50;91.50;;;;;;5102659;28;20298;-39
2023/06/23 05:51:53;;;;;;;;;;;25.50;91.60;;;;;;5105529;28;19916;-40
2023/06/23 05:54:19;;;;;;;;;;;25.60;91.60;;;;;;5113434;28;19981;-40
2023/06/23 05:56:48;;;;;;;;;;;25.60;91.60;;;;;;5112958;28;20366;-39
2023/06/23 05:59:17;;;;;;;;;;;25.60;91.60;;;;;;5095015;28;19973;-39
2023/06/23 06:01:45;;;;;;;;;;;25.60;91.60;;;;;;5095582;28;20404;-39
2023/06/23 06:04:14;;;;;;;;;;;25.60;91.80;;;;;;5105922;28;19922;-39
2023/06/23 06:06:40;;;;;;;;;;;25.60;91.50;;;;;;5114727;28;19943;-39
2023/06/23 06:09:07;;;;;;;;;;;25.60;91.50;;;;;;5109815;28;19954;-38
2023/06/23 06:11:33;;;;;;;;;;;25.60;91.50;;;;;;5096082;28;20270;-39
2023/06/23 06:14:00;;;;;;;;;;;25.60;91.50;;;;;;5094977;28;19909;-39
2023/06/23 06:16:25;;;;;;;;;;;25.60;91.60;;;;;;5101651;28;19930;-39
2023/06/23 06:18:52;;;;;;;;;;;25.60;91.50;;;;;;5116578;28;19908;-40
2023/06/23 06:21:19;;;;;;;;;;;25.50;90.60;;;;;;5093683;28;19912;-40
2023/06/23 06:23:45;;;;;;;;;;;25.40;90.40;;;;;;5095782;28;19912;-40
2023/06/23 06:26:11;;;;;;;;;;;25.20;90.40;;;;;;5102839;28;19915;-40
2023/06/23 06:28:38;;;;;;;;;;;25.10;90.30;;;;;;5116207;28;20326;-40
2023/06/23 06:31:06;;;;;;;;;;;25.00;90.40;;;;;;5104952;28;19912;-40
2023/06/23 06:33:31;;;;;;;;;;;25.10;90.50;;;;;;5094531;28;19919;-40
2023/06/23 06:36:03;;;;;;;;;;;25.10;90.40;;;;;;5077511;28;19908;-40
2023/06/23 06:38:30;;;;;;;;;;;25.00;90.50;;;;;;5095679;28;20324;-40
2023/06/23 06:40:57;;;;;;;;;;;24.90;88.00;;;;;;5100432;28;19911;-40
2023/06/23 06:43:23;;;;;;;;;;;24.90;87.60;;;;;;5088956;28;19916;-40
2023/06/23 06:45:49;;;;;;;;;;;24.80;88.10;;;;;;5106204;28;20430;-40
2023/06/23 06:48:15;;;;;;;;;;;24.70;88.60;;;;;;5097162;28;19920;-39
2023/06/23 06:50:40;;;;;;;;;;;24.80;87.50;;;;;;5103136;28;20006;-42
2023/06/23 06:53:06;;;;;;;;;;;24.70;87.50;;;;;;5115973;28;20398;-44
2023/06/23 06:55:32;;;;;;;;;;;24.70;87.30;;;;;;5102064;28;19914;-45
2023/06/23 06:57:57;;;;;;;;;;;24.60;87.40;;;;;;5109482;28;19920;-43
2023/06/23 07:00:23;;;;;;;;;;;24.60;87.60;;;;;;5106090;28;20359;-44
2023/06/23 07:02:49;;;;;;;;;;;24.60;88.30;;;;;;5095428;28;19912;-42
2023/06/23 07:05:16;;;;;;;;;;;24.70;88.70;;;;;;5094387;28;19924;-43
2023/06/23 07:07:42;;;;;;;;;;;24.70;89.00;;;;;;5112859;28;19912;-45
2023/06/23 07:10:08;;;;;;;;;;;24.80;88.60;;;;;;5078747;28;19966;-45
2023/06/23 07:12:33;;;;;;;;;;;24.90;88.90;;;;;;5074750;28;19912;-45
2023/06/23 07:14:59;;;;;;;;;;;24.90;89.40;;;;;;5072017;28;20007;-44
2023/06/23 07:17:24;;;;;;;;;;;24.90;89.80;;;;;;5072520;28;19981;-43
2023/06/23 07:19:50;;;;;;;;;;;25.00;90.00;;;;;;5072439;28;19913;-46
2023/06/23 07:22:16;;;;;;;;;;;25.00;90.00;;;;;;5054570;28;20000;-45
2023/06/23 07:24:42;;;;;;;;;;;25.10;90.10;;;;;;5072823;28;19920;-43
2023/06/23 07:27:08;;;;;;;;;;;25.10;90.10;;;;;;5071746;28;20279;-43
2023/06/23 07:29:34;;;;;;;;;;;25.10;90.20;;;;;;5073903;28;19916;-44
2023/06/23 07:32:01;;;;;;;;;;;25.10;90.20;;;;;;5074728;28;19908;-45
2023/06/23 07:34:27;;;;;;;;;;;25.20;90.30;;;;;;5074408;28;19909;-47
2023/06/23 07:36:53;;;;;;;;;;;25.20;90.30;;;;;;5074319;28;20275;-43
2023/06/23 07:39:19;;;;;;;;;;;25.20;90.30;;;;;;5074350;28;19908;-44
2023/06/23 07:41:44;;;;;;;;;;;25.20;90.30;;;;;;5074333;28;19916;-45
2023/06/23 07:44:10;;;;;;;;;;;25.30;90.30;;;;;;5074208;28;20061;-46
2023/06/23 07:46:35;;;;;;;;;;;25.30;90.30;;;;;;5074201;28;20003;-47
2023/06/23 07:49:01;;;;;;;;;;;25.30;90.40;;;;;;5056282;28;19908;-45
2023/06/23 07:51:26;;;;;;;;;;;25.30;90.30;;;;;;5074148;28;19909;-44
2023/06/23 07:53:52;;;;;;;;;;;25.30;90.30;;;;;;5074122;28;19908;-48
2023/06/23 07:56:17;;;;;;;;;;;25.30;90.30;;;;;;5056081;28;20271;-46
2023/06/23 07:58:43;;;;;;;;;;;25.30;90.30;;;;;;5073698;28;20007;-42
2023/06/23 08:01:10;;;;;;;;;;;25.30;90.30;;;;;;5074452;28;19909;-43
2023/06/23 08:03:35;;;;;;;;;;;25.30;90.40;;;;;;5074088;28;19913;-42
2023/06/23 08:06:01;;;;;;;;;;;25.40;90.40;;;;;;5055882;28;19919;-44
2023/06/23 08:08:26;;;;;;;;;;;25.40;90.40;;;;;;5074086;28;19916;-44
2023/06/23 08:10:52;;;;;;;;;;;25.40;90.40;;;;;;5073703;28;20356;-45
2023/06/23 08:13:17;;;;;;;;;;;25.40;90.40;;;;;;5073658;28;19908;-47
2023/06/23 08:15:43;;;;;;;;;;;25.40;90.40;;;;;;5073486;28;19915;-44
2023/06/23 08:18:08;;;;;;;;;;;25.40;90.50;;;;;;5073874;28;20355;-43
2023/06/23 08:20:34;;;;;;;;;;;25.40;90.40;;;;;;5073724;28;19912;-44
2023/06/23 08:22:59;;;;;;;;;;;25.50;90.70;;;;;;5073802;28;20012;-47
2023/06/23 08:25:25;;;;;;;;;;;25.50;90.40;;;;;;5055798;28;19919;-44
2023/06/23 08:27:50;;;;;;;;;;;25.50;90.30;;;;;;5055821;28;19913;-46
2023/06/23 08:30:24;;;;;;;;;;;25.50;90.30;;;;;;5073325;28;20295;-44
2023/06/23 08:32:49;;;;;;;;;;;25.50;90.30;;;;;;5073509;28;19908;-43
2023/06/23 08:35:14;;;;;;;;;;;25.50;90.30;;;;;;5073994;28;19965;-44
2023/06/23 08:37:40;;;;;;;;;;;25.50;90.20;;;;;;5074000;28;19923;-43
2023/06/23 08:40:06;;;;;;;;;;;25.50;90.20;;;;;;5077250;28;20278;-45
2023/06/23 08:42:31;;;;;;;;;;;25.50;90.20;;;;;;5077814;28;19914;-46
2023/06/23 08:44:58;;;;;;;;;;;25.50;90.20;;;;;;5077629;28;19912;-43
2023/06/23 08:47:25;;;;;;;;;;;25.60;90.20;;;;;;5077687;28;19928;-43
2023/06/23 08:49:51;;;;;;;;;;;25.50;90.20;;;;;;5077600;28;19908;-46
2023/06/23 08:52:17;;;;;;;;;;;25.60;90.30;;;;;;5059708;28;19909;-46
2023/06/23 08:54:43;;;;;;;;;;;25.60;90.30;;;;;;5077087;28;19925;-46
2023/06/23 08:57:08;;;;;;;;;;;25.50;90.20;;;;;;5077237;28;19999;-45
2023/06/23 08:59:34;;;;;;;;;;;25.50;90.10;;;;;;5077040;28;19909;-44
2023/06/23 09:01:59;;;;;;;;;;;25.50;90.10;;;;;;5077653;28;20373;-43
2023/06/23 09:04:25;;;;;;;;;;;25.60;90.20;;;;;;5076842;28;19920;-43
2023/06/23 09:06:50;;;;;;;;;;;25.60;90.10;;;;;;5077149;28;20309;-44
2023/06/23 09:09:18;;;;;;;;;;;25.60;90.20;;;;;;5077225;28;19912;-44
2023/06/23 09:11:43;;;;;;;;;;;25.60;90.10;;;;;;5076874;28;20284;-44
2023/06/23 09:14:09;;;;;;;;;;;25.60;90.20;;;;;;5077168;28;19915;-46
2023/06/23 09:16:35;;;;;;;;;;;25.60;90.30;;;;;;5059262;28;19920;-46
2023/06/23 09:19:02;;;;;;;;;;;25.60;90.30;;;;;;5076801;28;19909;-44
2023/06/23 09:21:28;;;;;;;;;;;25.60;90.20;;;;;;5092635;28;19909;-48
2023/06/23 09:24:04;;;;;;;;;;;25.60;90.20;;;;;;5076926;28;19955;-44
2023/06/23 09:26:30;;;;;;;;;;;25.60;90.30;;;;;;5076668;28;20375;-43
2023/06/23 09:29:15;;;;;;;;;;;25.70;90.30;;;;;;5076611;28;20378;-45
2023/06/23 09:31:41;;;;;;;;;;;25.70;90.30;;;;;;5076537;28;20015;-44
2023/06/23 09:34:06;;;;;;;;;;;25.70;90.40;;;;;;5076529;28;19955;-44
2023/06/23 09:36:35;;;;;;;;;;;25.70;90.30;;;;;;5076480;28;19908;-44
2023/06/23 09:39:01;;;;;;;;;;;25.70;90.30;;;;;;5076453;28;19962;-42
2023/06/23 09:41:30;;;;;;;;;;;25.70;90.30;;;;;;5076520;28;19912;-44
2023/06/23 09:43:56;;;;;;;;;;;25.70;90.30;;;;;;5076370;28;19923;-44
2023/06/23 09:46:22;;;;;;;;;;;25.70;90.30;;;;;;5076624;28;19909;-42
2023/06/23 09:48:51;;;;;;;;;;;25.70;90.30;;;;;;5076409;28;19927;-45
2023/06/23 09:51:19;;;;;;;;;;;25.70;90.30;;;;;;5076480;28;19909;-43
2023/06/23 09:53:44;;;;;;;;;;;25.70;90.20;;;;;;5076360;28;19923;-47
2023/06/23 09:56:20;;;;;;;;;;;25.60;90.20;;;;;;5076272;28;19909;-47
2023/06/23 09:58:46;;;;;;;;;;;25.60;90.20;;;;;;5076198;28;19924;-43
2023/06/23 10:01:13;;;;;;;;;;;25.60;90.10;;;;;;5076246;28;19916;-44
2023/06/23 10:03:48;;;;;;;;;;;25.60;90.20;;;;;;5076032;28;19916;-48
2023/06/23 10:06:34;;;;;;;;;;;25.70;90.20;;;;;;5076042;28;19908;-44
2023/06/23 10:09:01;;;;;;;;;;;25.60;90.10;;;;;;5075905;28;20347;-43
2023/06/23 10:11:30;;;;;;;;;;;25.60;90.10;;;;;;5075952;28;19948;-44
2023/06/23 10:14:05;;;;;;;;;;;25.70;90.10;;;;;;5075853;28;19908;-43
2023/06/23 10:16:31;;;;;;;;;;;25.60;90.10;;;;;;5075533;28;20297;-45
2023/06/23 10:18:57;;;;;;;;;;;25.60;90.20;;;;;;5075884;28;19912;-45
2023/06/23 10:21:22;;;;;;;;;;;25.60;90.10;;;;;;5075530;28;19909;-44
2023/06/23 10:23:48;;;;;;;;;;;25.60;90.20;;;;;;5075474;28;20350;-45
2023/06/23 10:26:15;;;;;;;;;;;25.60;90.10;;;;;;5075456;28;19915;-43
2023/06/23 10:28:43;;;;;;;;;;;25.70;90.10;;;;;;5076201;28;20236;-46
2023/06/23 10:31:08;;;;;;;;;;;25.60;90.00;;;;;;5075249;28;19935;-47
2023/06/23 10:33:36;;;;;;;;;;;25.60;90.00;;;;;;5075711;28;20349;-42
2023/06/23 10:36:03;;;;;;;;;;;25.60;90.00;;;;;;5075354;28;19908;-44
2023/06/23 10:38:29;;;;;;;;;;;25.70;90.00;;;;;;5075309;28;20376;-42
2023/06/23 10:40:58;;;;;;;;;;;25.70;90.10;;;;;;5075771;28;19919;-46
2023/06/23 10:43:24;;;;;;;;;;;25.70;90.10;;;;;;5075208;28;19917;-44
2023/06/23 10:45:49;;;;;;;;;;;25.70;90.10;;;;;;5075503;28;19909;-43
2023/06/23 10:48:15;;;;;;;;;;;25.70;90.10;;;;;;5074504;28;20365;-42
2023/06/23 10:50:41;;;;;;;;;;;25.60;89.90;;;;;;5073991;28;19970;-45
2023/06/23 10:53:08;;;;;;;;;;;25.60;89.90;;;;;;5056347;28;19916;-44
2023/06/23 10:55:34;;;;;;;;;;;25.60;90.20;;;;;;5074353;28;19960;-44
2023/06/23 10:58:10;;;;;;;;;;;25.60;89.90;;;;;;5073834;28;20377;-43
2023/06/23 11:00:35;;;;;;;;;;;25.60;89.90;;;;;;5072924;28;20337;-44
2023/06/23 11:03:01;;;;;;;;;;;25.60;90.00;;;;;;5074288;28;19909;-43
2023/06/23 11:05:27;;;;;;;;;;;25.60;90.00;;;;;;5073948;28;20414;-49
2023/06/23 11:08:02;;;;;;;;;;;25.60;90.00;;;;;;5074160;28;19999;-44
2023/06/23 11:10:46;;;;;;;;;;;25.60;90.00;;;;;;5074087;28;19912;-47
2023/06/23 11:13:12;;;;;;;;;;;25.60;90.00;;;;;;5073677;28;20331;-42
2023/06/23 11:15:37;;;;;;;;;;;25.60;90.00;;;;;;5073408;28;19915;-42
2023/06/23 11:18:06;;;;;;;;;;;25.60;90.00;;;;;;5073509;28;20003;-45
2023/06/23 11:20:38;;;;;;;;;;;25.60;90.00;;;;;;5073640;28;20004;-47
2023/06/23 11:23:08;;;;;;;;;;;25.60;89.90;;;;;;5073461;28;20373;-44
2023/06/23 11:25:47;;;;;;;;;;;25.60;89.90;;;;;;5073731;28;19962;-43
2023/06/23 11:28:21;;;;;;;;;;;25.60;89.70;;;;;;5073644;28;19909;-46
2023/06/23 11:31:10;;;;;;;;;;;25.60;89.80;;;;;;5073368;28;19908;-42
2023/06/23 11:33:37;;;;;;;;;;;25.60;89.80;;;;;;5065371;28;20363;-45
2023/06/23 11:36:03;;;;;;;;;;;25.60;89.90;;;;;;5088944;28;19931;-42
2023/06/23 11:38:30;;;;;;;;;;;25.70;90.00;;;;;;5073408;28;20020;-46
2023/06/23 11:40:59;;;;;;;;;;;25.70;90.10;;;;;;5073503;28;19932;-45
2023/06/23 11:43:25;;;;;;;;;;;25.70;90.10;;;;;;5073335;28;19920;-46
2023/06/23 11:46:04;;;;;;;;;;;25.70;90.10;;;;;;5073569;28;20279;-44
2023/06/23 11:48:29;;;;;;;;;;;25.70;90.10;;;;;;5011775;28;1754845;-43
2023/06/23 11:50:55;;;;;;;;;;;25.70;90.10;;;;;;5073849;28;20398;-42
2023/06/23 11:53:21;;;;;;;;;;;25.70;90.10;;;;;;5073783;28;19912;-43
2023/06/23 11:55:48;;;;;;;;;;;25.70;90.10;;;;;;5074215;28;19912;-43
2023/06/23 11:58:13;;;;;;;;;;;25.70;90.10;;;;;;5073690;28;19962;-43
2023/06/23 12:00:39;;;;;;;;;;;25.70;90.00;;;;;;5074069;28;19912;-43
2023/06/23 12:03:04;;;;;;;;;;;25.70;90.00;;;;;;5074133;28;19912;-44
2023/06/23 12:05:30;;;;;;;;;;;25.70;89.90;;;;;;5074046;28;19912;-43
2023/06/23 12:07:56;;;;;;;;;;;25.70;89.80;;;;;;5073691;28;19981;-42
2023/06/23 12:10:22;;;;;;;;;;;25.60;89.70;;;;;;5074315;28;19920;-45
2023/06/23 12:12:48;;;;;;;;;;;25.70;89.80;;;;;;5055673;28;20344;-42
2023/06/23 12:15:14;;;;;;;;;;;25.60;89.70;;;;;;5073509;28;19908;-42
2023/06/23 12:17:41;;;;;;;;;;;25.60;89.80;;;;;;5073356;28;19970;-44
2023/06/23 12:20:07;;;;;;;;;;;25.60;89.80;;;;;;5073827;28;19908;-43
2023/06/23 12:22:39;;;;;;;;;;;25.60;89.70;;;;;;5073840;28;19931;-44
2023/06/23 12:25:04;;;;;;;;;;;25.60;89.70;;;;;;5073520;28;19916;-43
2023/06/23 12:27:30;;;;;;;;;;;25.60;89.70;;;;;;5073554;28;19963;-46
2023/06/23 12:29:55;;;;;;;;;;;25.60;89.80;;;;;;5072997;28;19909;-45
2023/06/23 12:32:28;;;;;;;;;;;25.60;89.90;;;;;;5073160;28;19917;-45
2023/06/23 12:34:55;;;;;;;;;;;25.60;90.00;;;;;;5089040;28;19915;-44
2023/06/23 12:37:20;;;;;;;;;;;25.60;90.00;;;;;;5073497;28;19909;-45
2023/06/23 12:39:52;;;;;;;;;;;25.60;90.00;;;;;;5073298;28;20389;-44
2023/06/23 12:42:21;;;;;;;;;;;25.60;89.90;;;;;;5073570;28;19916;-44
2023/06/23 12:44:48;;;;;;;;;;;25.60;89.90;;;;;;5073489;28;20390;-45
2023/06/23 12:47:14;;;;;;;;;;;25.60;89.90;;;;;;5073211;28;19985;-45
2023/06/23 12:49:39;;;;;;;;;;;25.60;89.90;;;;;;5073309;28;20367;-45
2023/06/23 12:52:10;;;;;;;;;;;25.60;89.90;;;;;;5073462;28;20042;-44
2023/06/23 12:54:35;;;;;;;;;;;25.60;89.90;;;;;;5073145;28;19948;-45
2023/06/23 12:57:02;;;;;;;;;;;25.60;90.00;;;;;;5073240;28;19930;-44
2023/06/23 12:59:28;;;;;;;;;;;25.60;89.90;;;;;;5073620;28;19973;-43
2023/06/23 13:01:54;;;;;;;;;;;25.60;89.80;;;;;;5073267;28;19934;-43
2023/06/23 13:04:20;;;;;;;;;;;25.60;89.90;;;;;;5073290;28;19918;-44
2023/06/23 13:06:46;;;;;;;;;;;25.60;89.90;;;;;;5073156;28;20346;-46
2023/06/23 13:09:11;;;;;;;;;;;25.60;89.90;;;;;;5073293;28;19908;-45
2023/06/23 13:11:37;;;;;;;;;;;25.60;89.70;;;;;;5072918;28;19961;-42
2023/06/23 13:14:02;;;;;;;;;;;25.60;89.60;;;;;;5072973;28;19909;-44
2023/06/23 13:16:28;;;;;;;;;;;25.60;89.30;;;;;;5055041;28;20317;-43
2023/06/23 13:18:53;;;;;;;;;;;25.60;89.10;;;;;;5073174;28;19908;-44
2023/06/23 13:21:19;;;;;;;;;;;25.60;89.00;;;;;;5073246;28;19908;-44
2023/06/23 13:23:44;;;;;;;;;;;25.60;89.00;;;;;;5055769;28;19939;-48
2023/06/23 13:26:10;;;;;;;;;;;25.60;88.90;;;;;;5076680;28;19919;-48
2023/06/23 13:28:36;;;;;;;;;;;25.60;89.10;;;;;;5076671;28;19908;-45
2023/06/23 13:31:02;;;;;;;;;;;25.60;89.20;;;;;;5076909;28;19909;-47
2023/06/23 13:33:28;;;;;;;;;;;25.60;89.30;;;;;;5076900;28;19914;-49
2023/06/23 13:35:53;;;;;;;;;;;25.60;89.30;;;;;;5076878;28;20296;-49
2023/06/23 13:38:19;;;;;;;;;;;25.60;89.30;;;;;;5076071;28;19954;-44
2023/06/23 13:40:44;;;;;;;;;;;25.60;89.30;;;;;;5076176;28;19952;-46
2023/06/23 13:43:10;;;;;;;;;;;25.60;89.20;;;;;;5076076;28;19909;-46
2023/06/23 13:45:35;;;;;;;;;;;25.60;89.20;;;;;;5076327;28;19919;-44
2023/06/23 13:48:01;;;;;;;;;;;25.60;89.20;;;;;;5075780;28;20347;-43
2023/06/23 13:50:26;;;;;;;;;;;25.60;89.20;;;;;;5076253;28;19951;-46
2023/06/23 13:52:51;;;;;;;;;;;25.60;89.30;;;;;;5075807;28;20332;-42
2023/06/23 13:55:17;;;;;;;;;;;25.60;89.40;;;;;;5076120;28;19908;-44
2023/06/23 13:57:43;;;;;;;;;;;25.60;89.30;;;;;;5075844;28;19908;-45
2023/06/23 14:00:08;;;;;;;;;;;25.60;89.80;;;;;;5076293;28;19908;-43
2023/06/23 14:02:37;;;;;;;;;;;25.60;89.30;;;;;;5076029;28;19909;-44
2023/06/23 14:05:03;;;;;;;;;;;25.60;89.30;;;;;;5076194;28;19913;-42
2023/06/23 14:07:28;;;;;;;;;;;25.60;89.20;;;;;;5076225;28;19934;-43
2023/06/23 14:09:54;;;;;;;;;;;25.60;89.10;;;;;;5076122;28;20021;-44
2023/06/23 14:12:20;;;;;;;;;;;25.60;89.10;;;;;;5076443;28;19909;-45
2023/06/23 14:14:45;;;;;;;;;;;25.60;89.10;;;;;;5075681;28;20405;-43
2023/06/23 14:17:11;;;;;;;;;;;25.60;89.20;;;;;;5075573;28;20011;-45